Time;durP1;ratioP1;P1;durP2;ratioP2;P2;SDS_P1;SDS_P2;PMS_P1;PMS_P2;Temp;Humidity;BMP_temperature;BMP_pressure;BME280_temperature;BME280_humidity;BME280_pressure;Samples;Min_cycle;Max_cycle;Signal;HPM_P1;HPM_P2
2022/03/10 00:00:15;;;;;;;25.10;11.20;;;;;;;3.33;100.00;102255.59;7401130;19;20463;-51
2022/03/10 00:02:45;;;;;;;13.43;7.13;;;;;;;3.23;100.00;102252.97;7393389;19;20913;-50
2022/03/10 00:05:18;;;;;;;12.40;6.10;;;;;;;3.24;100.00;102254.75;7396284;19;20401;-48
2022/03/10 00:07:48;;;;;;;15.17;6.23;;;;;;;3.23;100.00;102258.06;7394918;19;20399;-47
2022/03/10 00:10:18;;;;;;;14.90;7.77;;;;;;;3.37;100.00;102251.69;7397847;19;20382;-50
2022/03/10 00:12:55;;;;;;;13.67;6.60;;;;;;;3.36;100.00;102249.91;7389812;19;20404;-50
2022/03/10 00:15:26;;;;;;;18.07;7.30;;;;;;;3.28;100.00;102254.25;7396109;19;20969;-49
2022/03/10 00:18:02;;;;;;;90.23;37.70;;;;;;;3.20;100.00;102257.75;7391998;19;20494;-46
2022/03/10 00:20:31;;;;;;;26.83;12.20;;;;;;;3.28;100.00;102256.81;7401369;19;20391;-49
2022/03/10 00:23:01;;;;;;;23.97;12.03;;;;;;;3.33;100.00;102260.72;7392038;19;21430;-47
2022/03/10 00:25:31;;;;;;;14.13;7.20;;;;;;;3.41;100.00;102258.91;7395511;19;21009;-50
2022/03/10 00:28:03;;;;;;;20.50;9.57;;;;;;;3.43;100.00;102271.81;7392895;19;20415;-47
2022/03/10 00:30:32;;;;;;;17.27;8.13;;;;;;;3.35;100.00;102269.41;7401682;19;20890;-50
2022/03/10 00:33:02;;;;;;;17.10;8.43;;;;;;;3.43;100.00;102271.81;7393208;19;20399;-47
2022/03/10 00:35:31;;;;;;;14.77;7.30;;;;;;;3.32;100.00;102280.97;7395459;19;20419;-48
2022/03/10 00:38:01;;;;;;;18.17;7.83;;;;;;;3.23;100.00;102276.78;7395575;19;20422;-48
2022/03/10 00:40:31;;;;;;;13.83;7.40;;;;;;;3.36;100.00;102275.41;7398102;19;20384;-46
2022/03/10 00:43:03;;;;;;;11.70;7.10;;;;;;;3.34;100.00;102280.38;7391934;19;20946;-48
2022/03/10 00:45:33;;;;;;;15.10;7.87;;;;;;;3.21;100.00;102285.06;7395431;19;20499;-49
2022/03/10 00:48:02;;;;;;;15.00;8.20;;;;;;;3.34;100.00;102282.91;7393116;19;20485;-48
2022/03/10 00:50:32;;;;;;;15.53;8.43;;;;;;;3.27;100.00;102280.53;7396750;19;20390;-48
2022/03/10 00:53:02;;;;;;;12.77;6.70;;;;;;;3.21;100.00;102280.88;7392695;19;20814;-49
2022/03/10 00:55:31;;;;;;;13.27;6.90;;;;;;;3.07;100.00;102278.59;7395610;19;20415;-48
2022/03/10 00:58:03;;;;;;;12.53;7.30;;;;;;;2.83;100.00;102266.19;7392008;19;20395;-48
2022/03/10 01:00:33;;;;;;;22.20;7.63;;;;;;;2.84;100.00;102270.53;7397108;19;20387;-46
2022/03/10 01:03:03;;;;;;;14.50;7.20;;;;;;;2.88;100.00;102266.66;7391574;19;20416;-47
2022/03/10 01:05:33;;;;;;;12.70;6.87;;;;;;;2.82;100.00;102277.13;7394793;19;20415;-46
2022/03/10 01:08:02;;;;;;;16.33;7.43;;;;;;;2.73;100.00;102268.59;7391283;19;20399;-47
2022/03/10 01:10:32;;;;;;;15.13;7.43;;;;;;;2.87;100.00;102272.47;7396491;19;20378;-51
2022/03/10 01:13:05;;;;;;;16.17;8.03;;;;;;;2.68;100.00;102274.91;7392368;19;20961;-49
2022/03/10 01:15:34;;;;;;;19.50;8.20;;;;;;;2.64;100.00;102267.69;7394708;19;20428;-47
2022/03/10 01:18:04;;;;;;;17.10;8.20;;;;;;;2.68;100.00;102269.81;7391172;19;20436;-49
2022/03/10 01:20:33;;;;;;;16.67;7.40;;;;;;;2.58;100.00;102262.00;7399466;19;20749;-49
2022/03/10 01:23:03;;;;;;;15.57;7.60;;;;;;;2.61;100.00;102264.84;7391227;19;20395;-47
2022/03/10 01:25:33;;;;;;;13.40;6.77;;;;;;;2.62;100.00;102259.00;7394167;19;20438;-46
2022/03/10 01:28:05;;;;;;;14.33;6.93;;;;;;;2.58;100.00;102260.34;7391293;19;20429;-47
2022/03/10 01:30:34;;;;;;;14.33;7.40;;;;;;;2.49;100.00;102260.34;7395673;19;20454;-47
2022/03/10 01:33:04;;;;;;;20.30;8.07;;;;;;;2.35;100.00;102264.06;7390954;19;20407;-48
2022/03/10 01:35:34;;;;;;;169.30;79.33;;;;;;;3.20;100.00;102273.06;7394076;19;20399;-49
2022/03/10 01:38:04;;;;;;;16.57;8.83;;;;;;;3.14;100.00;102269.91;7388723;19;20395;-49
2022/03/10 01:40:36;;;;;;;24.10;11.90;;;;;;;2.64;100.00;102260.97;7395576;19;20754;-48
2022/03/10 01:43:08;;;;;;;23.27;12.63;;;;;;;2.67;100.00;102262.91;7391256;19;20478;-50
2022/03/10 01:45:37;;;;;;;17.40;7.97;;;;;;;2.62;100.00;102264.09;7393477;19;20523;-49
2022/03/10 01:48:07;;;;;;;20.30;10.60;;;;;;;2.49;100.00;102260.34;7390081;19;20395;-46
2022/03/10 01:50:37;;;;;;;18.23;9.87;;;;;;;2.42;100.00;102265.59;7394825;19;20371;-48
2022/03/10 01:53:06;;;;;;;19.17;10.30;;;;;;;2.40;100.00;102267.06;7390595;19;20419;-49
2022/03/10 01:55:36;;;;;;;19.50;8.07;;;;;;;2.22;100.00;102274.69;7393448;19;21053;-49
2022/03/10 01:58:08;;;;;;;18.80;10.30;;;;;;;2.42;100.00;102270.69;7390151;19;20490;-48
2022/03/10 02:00:38;;;;;;;20.13;9.57;;;;;;;2.40;100.00;102267.06;7393158;19;20394;-50
2022/03/10 02:03:08;;;;;;;21.20;8.80;;;;;;;2.26;100.00;102274.25;7390407;19;20402;-51
2022/03/10 02:05:37;;;;;;;20.10;9.87;;;;;;;2.45;100.00;102265.88;7397356;19;20414;-47
2022/03/10 02:10:49;;;;;;;23.00;10.87;;;;;;;2.10;100.00;102265.84;7394451;19;20395;-47
2022/03/10 02:13:21;;;;;;;13.87;7.40;;;;;;;2.04;100.00;102257.56;7390586;19;20394;-51
2022/03/10 02:18:33;;;;;;;17.23;8.83;;;;;;;2.02;100.00;102258.28;7386657;19;20391;-49
2022/03/10 02:21:02;;;;;;;15.27;8.80;;;;;;;2.02;100.00;102263.38;7398016;19;20410;-47
2022/03/10 02:23:35;;;;;;;18.50;9.23;;;;;;;2.10;100.00;102253.97;7390347;19;20410;-46
2022/03/10 02:26:05;;;;;;;21.93;8.87;;;;;;;1.97;100.00;102254.41;7393580;19;20396;-47
2022/03/10 02:28:35;;;;;;;21.60;9.03;;;;;;;1.96;100.00;102264.44;7392642;19;20446;-49
2022/03/10 02:31:04;;;;;;;17.83;9.10;;;;;;;2.00;100.00;102259.78;7393772;19;20359;-47
2022/03/10 02:33:34;;;;;;;16.63;7.87;;;;;;;2.07;100.00;102258.78;7386560;19;20410;-51
2022/03/10 02:36:04;;;;;;;14.77;8.27;;;;;;;2.21;100.00;102257.59;7393161;19;20371;-46
2022/03/10 02:38:36;;;;;;;16.20;8.10;;;;;;;2.12;100.00;102264.31;7389200;19;20474;-48
2022/03/10 02:41:06;;;;;;;21.97;8.87;;;;;;;2.10;100.00;102261.63;7396319;19;20386;-48
2022/03/10 02:43:36;;;;;;;17.50;9.00;;;;;;;2.06;100.00;102267.16;7388374;19;20421;-50
2022/03/10 02:46:05;;;;;;;17.47;9.23;;;;;;;2.02;100.00;102273.56;7393077;19;20922;-54
2022/03/10 02:48:35;;;;;;;14.80;8.30;;;;;;;1.83;100.00;102275.00;7389106;19;20437;-50
2022/03/10 02:51:05;;;;;;;16.33;8.40;;;;;;;1.92;100.00;102273.41;7393218;19;20371;-46
2022/03/10 02:53:38;;;;;;;16.90;8.60;;;;;;;1.79;100.00;102272.91;7378385;19;20414;-52
2022/03/10 02:56:08;;;;;;;14.20;8.00;;;;;;;1.87;100.00;102279.69;7394619;19;20387;-47
2022/03/10 02:58:38;;;;;;;15.80;8.17;;;;;;;1.79;100.00;102267.81;7389091;19;20429;-46
2022/03/10 03:01:07;;;;;;;22.33;8.87;;;;;;;1.90;100.00;102269.81;7392722;19;20386;-46
2022/03/10 03:03:37;;;;;;;17.30;8.73;;;;;;;1.89;100.00;102266.34;7388003;19;20438;-47
2022/03/10 03:06:07;;;;;;;17.60;8.27;;;;;;;1.98;100.00;102261.31;7392607;19;20388;-47
2022/03/10 03:08:39;;;;;;;20.23;7.90;;;;;;;1.87;100.00;102270.41;7388366;19;20410;-46
2022/03/10 03:11:08;;;;;;;19.17;8.50;;;;;;;1.78;100.00;102261.81;7392757;19;20386;-47
2022/03/10 03:13:38;;;;;;;16.23;8.33;;;;;;;1.60;100.00;102269.38;7395431;19;20398;-49
2022/03/10 03:16:07;;;;;;;15.70;8.77;;;;;;;1.79;100.00;102267.81;7399760;19;20472;-50
2022/03/10 03:18:37;;;;;;;15.53;7.67;;;;;;;1.85;100.00;102278.63;7392095;19;20446;-49
2022/03/10 03:21:06;;;;;;;17.23;8.77;;;;;;;1.75;100.00;102281.88;7404270;19;20373;-49
2022/03/10 03:23:38;;;;;;;14.20;7.93;;;;;;;1.61;100.00;102288.09;7394636;19;20414;-47
2022/03/10 03:26:08;;;;;;;18.70;9.00;;;;;;;1.55;100.00;102277.28;7399197;19;20376;-50
2022/03/10 03:28:37;;;;;;;16.20;8.13;;;;;;;1.67;100.00;102288.72;7392933;19;20414;-48
2022/03/10 03:31:07;;;;;;;14.70;8.40;;;;;;;1.64;100.00;102283.31;7399735;19;20381;-51
2022/03/10 03:33:36;;;;;;;17.53;8.43;;;;;;;1.64;100.00;102282.44;7395866;19;20407;-50
2022/03/10 03:36:07;;;;;;;23.00;8.90;;;;;;;1.58;100.00;102286.13;7399256;19;20375;-47
2022/03/10 03:38:39;;;;;;;17.27;8.80;;;;;;;1.42;100.00;102291.28;7394557;19;20421;-47
2022/03/10 03:41:08;;;;;;;17.50;8.33;;;;;;;1.33;100.00;102291.25;7399251;19;20371;-47
2022/03/10 03:43:38;;;;;;;18.73;8.77;;;;;;;1.48;100.00;102291.94;7394991;19;20425;-48
2022/03/10 03:46:10;;;;;;;18.50;9.10;;;;;;;1.49;100.00;102290.28;7398835;19;20366;-47
2022/03/10 03:48:39;;;;;;;15.90;8.40;;;;;;;1.43;100.00;102295.63;7395609;19;20446;-50
2022/03/10 03:51:11;;;;;;;15.27;8.10;;;;;;;1.53;100.00;102299.16;7398828;19;20408;-47
2022/03/10 03:53:43;;;;;;;16.20;7.90;;;;;;;1.38;100.00;102298.47;7395219;19;20415;-47
2022/03/10 03:56:12;;;;;;;18.37;9.00;;;;;;;1.43;100.00;102303.25;7398803;19;20367;-49
2022/03/10 03:58:42;;;;;;;15.73;8.23;;;;;;;1.32;100.00;102301.25;7394583;19;20398;-47
2022/03/10 04:01:14;;;;;;;18.53;8.47;;;;;;;1.19;100.00;102304.16;7398468;19;20392;-47
2022/03/10 04:03:44;;;;;;;15.87;8.37;;;;;;;1.21;100.00;102298.50;7388214;19;20442;-49
2022/03/10 04:06:16;;;;;;;16.80;9.10;;;;;;;1.06;100.00;102301.97;7398683;19;20398;-47
2022/03/10 04:08:48;;;;;;;18.43;8.70;;;;;;;1.19;100.00;102307.59;7396357;19;20429;-51
2022/03/10 04:11:18;;;;;;;15.10;8.30;;;;;;;1.02;100.00;102310.91;7400054;19;20895;-48
2022/03/10 04:13:48;;;;;;;20.10;9.40;;;;;;;0.98;100.00;102306.28;7393549;19;20418;-47
2022/03/10 04:16:20;;;;;;;17.00;8.70;;;;;;;0.97;100.00;102318.81;7398069;19;20733;-51
2022/03/10 04:18:49;;;;;;;17.93;9.13;;;;;;;0.94;100.00;102315.19;7393736;19;20415;-48
2022/03/10 04:21:19;;;;;;;17.17;8.73;;;;;;;0.96;100.00;102310.28;7398088;19;20383;-47
2022/03/10 04:23:52;;;;;;;18.83;8.68;;;;;;;1.03;100.00;102309.28;7392814;19;20250;-47
2022/03/10 04:26:21;;;;;;;17.43;9.30;;;;;;;0.99;100.00;102314.78;7398129;19;20123;-48
2022/03/10 04:28:51;;;;;;;24.87;9.70;;;;;;;0.87;100.00;102322.03;7395786;19;20434;-46
2022/03/10 04:31:23;;;;;;;15.53;8.90;;;;;;;0.96;100.00;102322.09;7397894;19;20390;-49
2022/03/10 04:33:53;;;;;;;19.45;9.27;;;;;;;0.87;100.00;102327.97;7393748;19;20392;-47
2022/03/10 04:36:24;;;;;;;19.70;8.87;;;;;;;0.87;100.00;102325.44;7397326;19;20151;-47
2022/03/10 04:38:56;;;;;;;19.90;9.53;;;;;;;1.01;100.00;102321.84;7393533;19;20412;-47
2022/03/10 04:41:25;;;;;;;19.87;9.30;;;;;;;1.10;100.00;102332.06;7398292;19;20400;-51
2022/03/10 04:43:55;;;;;;;21.43;10.20;;;;;;;1.00;100.00;102332.75;7392098;19;20462;-51
2022/03/10 04:46:26;;;;;;;17.87;9.07;;;;;;;0.88;100.00;102336.53;7398622;19;20626;-49
2022/03/10 04:48:56;;;;;;;19.35;9.50;;;;;;;0.94;100.00;102340.59;7392693;19;20496;-48
2022/03/10 04:51:28;;;;;;;19.90;9.47;;;;;;;1.07;100.00;102336.81;7396666;19;20139;-47
2022/03/10 04:54:00;;;;;;;18.80;9.70;;;;;;;1.04;100.00;102336.50;7395110;19;20465;-47
2022/03/10 04:56:30;;;;;;;19.30;9.83;;;;;;;1.02;100.00;102338.88;7396486;19;20400;-48
2022/03/10 04:58:59;;;;;;;19.20;9.60;;;;;;;1.01;100.00;102339.63;7392879;19;20415;-50
2022/03/10 05:01:31;;;;;;;20.40;10.40;;;;;;;1.15;100.00;102345.25;7396903;19;20406;-47
2022/03/10 05:04:01;;;;;;;23.20;10.17;;;;;;;1.15;100.00;102341.09;7391897;19;20209;-46
2022/03/10 05:06:33;;;;;;;20.47;10.63;;;;;;;0.88;100.00;102336.53;7396485;19;20394;-49
2022/03/10 05:09:05;;;;;;;20.10;9.57;;;;;;;0.92;100.00;102339.53;7392541;19;20419;-47
2022/03/10 05:11:34;;;;;;;21.30;10.43;;;;;;;0.85;100.00;102334.56;7396700;19;20367;-47
2022/03/10 05:14:04;;;;;;;21.15;10.32;;;;;;;0.70;100.00;102327.81;7391105;19;20439;-48
2022/03/10 05:16:35;;;;;;;20.27;10.25;;;;;;;0.83;100.00;102324.97;7395772;19;20128;-49
2022/03/10 05:19:05;;;;;;;25.53;10.70;;;;;;;0.77;100.00;102328.66;7392230;19;20199;-51
2022/03/10 05:21:37;;;;;;;20.58;10.82;;;;;;;0.88;100.00;102331.44;7396157;19;20397;-48
2022/03/10 05:24:10;;;;;;;19.87;9.20;;;;;;;0.80;100.00;102341.69;7391738;19;20538;-48
2022/03/10 05:26:40;;;;;;;26.43;10.33;;;;;;;0.78;100.00;102329.56;7394988;19;20387;-47
2022/03/10 05:29:09;;;;;;;18.30;8.83;;;;;;;1.35;100.00;102327.00;7390990;19;20405;-47
2022/03/10 05:31:40;;;;;;;17.40;9.70;;;;;;;1.57;100.00;102326.69;7395819;19;20943;-47
2022/03/10 05:34:10;;;;;;;20.63;10.63;;;;;;;1.61;100.00;102333.91;7391041;19;20403;-47
2022/03/10 05:36:42;;;;;;;23.67;9.90;;;;;;;1.94;100.00;102337.22;7393185;19;20400;-48
2022/03/10 05:39:14;;;;;;;26.87;13.23;;;;;;;1.88;100.00;102338.38;7390813;19;20415;-48
2022/03/10 05:41:44;;;;;;;39.33;18.40;;;;;;;2.27;100.00;102343.94;7395703;19;20401;-46
2022/03/10 05:44:14;;;;;;;78.27;35.63;;;;;;;2.35;100.00;102342.16;7389430;19;20427;-48
2022/03/10 05:46:44;;;;;;;35.70;16.83;;;;;;;1.87;100.00;102344.22;7395013;19;20392;-47
2022/03/10 05:49:14;;;;;;;23.17;10.60;;;;;;;1.40;100.00;102345.28;7390865;19;20414;-46
2022/03/10 05:51:46;;;;;;;55.73;25.87;;;;;;;1.15;100.00;102343.63;7394932;19;20726;-49
2022/03/10 05:54:18;;;;;;;48.63;21.90;;;;;;;1.10;100.00;102343.88;7390717;19;20426;-47
2022/03/10 05:56:47;;;;;;;40.57;18.03;;;;;;;0.85;100.00;102348.88;7394549;19;20394;-50
2022/03/10 05:59:17;;;;;;;25.33;12.43;;;;;;;0.76;100.00;102353.88;7391444;19;20430;-51
2022/03/10 06:01:48;;;;;;;49.23;22.37;;;;;;;0.87;100.00;102352.53;7395259;19;20392;-49
2022/03/10 06:04:18;;;;;;;44.50;20.30;;;;;;;0.79;100.00;102349.16;7393909;19;20447;-48
2022/03/10 06:06:50;;;;;;;34.77;16.40;;;;;;;0.90;100.00;102348.66;7392305;19;20386;-52
2022/03/10 06:09:22;;;;;;;47.10;19.30;;;;;;;0.88;100.00;102350.13;7388612;19;20399;-51
2022/03/10 06:11:52;;;;;;;37.27;17.73;;;;;;;0.86;100.00;102356.69;7394366;19;20375;-48
2022/03/10 06:14:21;;;;;;;30.60;13.73;;;;;;;0.90;100.00;102356.28;7385039;19;20461;-46
2022/03/10 06:16:52;;;;;;;30.02;14.20;;;;;;;0.75;100.00;102358.09;7393789;19;20471;-48
2022/03/10 06:19:22;;;;;;;36.00;15.83;;;;;;;0.62;100.00;102370.22;7387879;19;20193;-47
2022/03/10 06:21:52;;;;;;;27.27;12.20;;;;;;;0.66;100.00;102363.09;7398005;19;20379;-47
2022/03/10 06:24:24;;;;;;;23.47;11.37;;;;;;;0.57;100.00;102364.66;7389633;19;20954;-48
2022/03/10 06:26:53;;;;;;;24.75;13.82;;;;;;;0.61;100.00;102369.28;7391784;19;20385;-52
2022/03/10 06:29:23;;;;;;;26.80;12.93;;;;;;;0.65;100.00;102370.53;7389516;19;20186;-46
2022/03/10 06:31:53;;;;;;;22.13;11.20;;;;;;;0.47;100.00;102377.06;7393745;19;20129;-47
2022/03/10 06:34:22;;;;;;;33.15;14.00;;;;;;;0.67;100.00;102376.69;7389436;19;20438;-49
2022/03/10 06:36:52;;;;;;;34.20;15.77;;;;;;;0.83;100.00;102370.72;7396902;19;20698;-48
2022/03/10 06:39:24;;;;;;;22.90;12.55;;;;;;;0.91;100.00;102380.03;7388827;19;20194;-47
2022/03/10 06:41:53;;;;;;;33.80;15.40;;;;;;;0.90;100.00;102378.25;7393427;19;20127;-47
2022/03/10 06:44:23;;;;;;;28.40;13.18;;;;;;;0.98;100.00;102379.06;7388246;19;20490;-48
2022/03/10 06:46:52;;;;;;;31.93;14.70;;;;;;;1.02;100.00;102382.09;7390472;19;20599;-47
2022/03/10 06:49:22;;;;;;;40.70;20.83;;;;;;;1.55;100.00;102379.06;7388516;19;20424;-50
2022/03/10 06:51:52;;;;;;;42.30;20.63;;;;;;;2.18;100.00;102391.38;7393595;19;20384;-47
2022/03/10 06:54:24;;;;;;;64.43;30.17;;;;;;;2.69;100.00;102391.41;7387367;19;20397;-49
2022/03/10 06:56:54;;;;;;;31.27;15.07;;;;;;;2.17;100.00;102400.69;7392997;19;20403;-47
2022/03/10 06:59:23;;;;;;;20.57;10.67;;;;;;;1.63;100.00;102403.66;7388692;19;20397;-48
2022/03/10 07:01:53;;;;;;;33.13;15.90;;;;;;;1.92;100.00;102403.25;7392882;19;20398;-50
2022/03/10 07:04:23;;;;;;;39.57;18.00;;;;;;;2.14;100.00;102406.34;7387666;19;20423;-49
2022/03/10 07:06:52;;;;;;;38.70;18.57;;;;;;;2.11;100.00;102405.16;7390677;19;20392;-50
2022/03/10 07:09:25;;;;;;;38.40;19.17;;;;;;;2.24;100.00;102413.28;7387832;19;20404;-49
2022/03/10 07:11:54;;;;;;;23.63;12.23;;;;;;;2.27;100.00;102411.03;7392622;19;20877;-50
2022/03/10 07:14:24;;;;;;;101.90;47.00;;;;;;;2.86;100.00;102412.59;7381970;19;20400;-47
2022/03/10 07:16:54;;;;;;;80.67;34.80;;;;;;;3.21;100.00;102412.59;7392276;19;20383;-51
2022/03/10 07:19:24;;;;;;;34.23;16.73;;;;;;;2.88;100.00;102408.53;7385230;19;20430;-46
2022/03/10 07:21:55;;;;;;;45.43;20.57;;;;;;;2.70;100.00;102416.13;7392490;19;20407;-48
2022/03/10 07:24:28;;;;;;;24.00;12.53;;;;;;;2.76;100.00;102409.09;7387767;19;20387;-47
2022/03/10 07:27:01;;;;;;;26.20;11.30;;;;;;;2.55;100.00;102416.41;7390190;19;20362;-48
2022/03/10 07:29:30;;;;;;;57.37;24.70;;;;;;;2.76;100.00;102415.88;7387690;19;20411;-48
2022/03/10 07:32:00;;;;;;;26.70;11.90;;;;;;;2.84;100.00;102410.75;7392132;19;20381;-47
2022/03/10 07:34:29;;;;;;;26.13;11.00;;;;;;;2.76;100.00;102411.66;7386880;19;20402;-47
2022/03/10 07:36:59;;;;;;;22.07;10.93;;;;;;;2.88;100.00;102408.53;7391360;19;20376;-47
2022/03/10 07:39:31;;;;;;;24.40;11.83;;;;;;;2.79;100.00;102411.06;7384799;19;20394;-47
2022/03/10 07:42:01;;;;;;;37.87;16.40;;;;;;;2.85;100.00;102416.78;7391917;19;20406;-49
2022/03/10 07:44:30;;;;;;;23.63;11.47;;;;;;;2.99;100.00;102423.25;7387030;19;20425;-49
2022/03/10 07:47:02;;;;;;;24.63;10.93;;;;;;;2.94;100.00;102427.00;7389831;19;20391;-49
2022/03/10 07:49:32;;;;;;;23.03;11.27;;;;;;;2.84;100.00;102425.16;7386889;19;20395;-48
2022/03/10 07:52:04;;;;;;;27.00;11.07;;;;;;;2.84;100.00;102425.16;7389595;19;20391;-50
2022/03/10 07:54:36;;;;;;;19.77;10.03;;;;;;;2.93;100.00;102420.09;7386548;19;20913;-51
2022/03/10 07:57:06;;;;;;;21.37;11.13;;;;;;;3.06;100.00;102418.00;7395631;19;20395;-49
2022/03/10 07:59:36;;;;;;;21.80;10.80;;;;;;;3.06;100.00;102425.66;7391985;19;20415;-47
2022/03/10 08:02:07;;;;;;;66.07;22.67;;;;;;;2.97;100.00;102424.72;7398497;19;20521;-48
2022/03/10 08:04:41;;;;;;;28.60;12.77;;;;;;;2.94;100.00;102422.81;7391987;19;20462;-46
2022/03/10 08:07:10;;;;;;;25.07;10.63;;;;;;;2.98;100.00;102421.47;7395972;19;20371;-47
2022/03/10 08:09:42;;;;;;;23.80;11.47;;;;;;;3.14;100.00;102422.97;7397960;19;20441;-47
2022/03/10 08:12:12;;;;;;;19.80;10.47;;;;;;;3.22;100.00;102422.97;7398320;19;20385;-48
2022/03/10 08:14:42;;;;;;;26.57;11.30;;;;;;;3.28;100.00;102416.66;7393568;19;20938;-49
2022/03/10 08:17:11;;;;;;;22.10;10.80;;;;;;;3.29;100.00;102421.94;7397910;19;20405;-48
2022/03/10 08:19:41;;;;;;;22.53;10.80;;;;;;;3.44;100.00;102411.41;7394292;19;20441;-48
2022/03/10 08:22:12;;;;;;;21.40;11.60;;;;;;;3.52;100.00;102420.69;7396249;19;20368;-47
2022/03/10 08:24:44;;;;;;;22.83;10.80;;;;;;;3.63;100.00;102409.88;7392874;19;20414;-51
2022/03/10 08:27:14;;;;;;;148.67;45.77;;;;;;;3.72;100.00;102409.88;7399506;19;20396;-48
2022/03/10 08:29:44;;;;;;;26.03;11.13;;;;;;;3.73;100.00;102406.56;7392728;19;20945;-49
2022/03/10 08:32:16;;;;;;;21.87;11.07;;;;;;;3.86;100.00;102408.66;7397364;19;20391;-50
2022/03/10 08:34:45;;;;;;;22.80;11.63;;;;;;;3.94;100.00;102405.94;7391809;19;20407;-46
2022/03/10 08:37:18;;;;;;;164.70;56.60;;;;;;;4.05;100.00;102403.63;7398788;19;20450;-48
2022/03/10 08:39:50;;;;;;;21.43;10.63;;;;;;;4.15;100.00;102402.84;7393582;19;20417;-50
2022/03/10 08:42:20;;;;;;;24.50;11.60;;;;;;;4.27;100.00;102402.19;7397387;19;20371;-50
2022/03/10 08:44:49;;;;;;;25.33;11.90;;;;;;;4.38;100.00;102398.06;7390266;19;20442;-48
2022/03/10 08:47:22;;;;;;;19.40;10.20;;;;;;;4.37;100.00;102399.75;7395516;19;20388;-51
2022/03/10 08:49:52;;;;;;;21.30;10.97;;;;;;;4.51;100.00;102398.47;7395730;19;20434;-47
2022/03/10 08:52:21;;;;;;;20.43;10.70;;;;;;;4.61;100.00;102401.88;7397261;19;20363;-49
2022/03/10 08:54:53;;;;;;;27.17;11.37;;;;;;;4.73;100.00;102396.22;7394704;19;20407;-52
2022/03/10 08:57:23;;;;;;;42.97;11.43;;;;;;;4.90;100.00;102391.75;7400169;19;20378;-51
2022/03/10 08:59:53;;;;;;;27.50;10.50;;;;;;;5.00;100.00;102396.97;7395756;19;20398;-46
2022/03/10 09:02:24;;;;;;;24.90;11.33;;;;;;;5.10;100.00;102395.22;7396776;19;20720;-50
2022/03/10 09:04:54;;;;;;;23.23;10.80;;;;;;;5.17;100.00;102389.00;7394250;19;20399;-53
2022/03/10 09:07:26;;;;;;;17.10;10.00;;;;;;;5.27;100.00;102384.84;7393277;19;20395;-58
2022/03/10 09:09:58;;;;;;;20.07;10.63;;;;;;;5.39;100.00;102382.47;7395181;19;20378;-49
2022/03/10 09:12:27;;;;;;;29.63;13.63;;;;;;;5.56;100.00;102384.72;7390947;19;20384;-47
2022/03/10 09:14:57;;;;;;;22.57;10.57;;;;;;;5.74;100.00;102381.22;7394086;19;20450;-48
2022/03/10 09:17:28;;;;;;;24.33;10.70;;;;;;;5.89;100.00;102391.91;7392250;19;20459;-51
2022/03/10 09:19:58;;;;;;;18.37;10.30;;;;;;;6.00;100.00;102385.16;7395932;19;20395;-47
2022/03/10 09:22:30;;;;;;;18.97;10.20;;;;;;;6.12;100.00;102380.25;7392815;19;20788;-48
2022/03/10 09:25:05;;;;;;;21.90;10.00;;;;;;;6.25;100.00;102371.03;7394485;19;20409;-48
2022/03/10 09:27:35;;;;;;;18.57;10.00;;;;;;;6.32;100.00;102368.22;7391260;19;20456;-47
2022/03/10 09:30:06;;;;;;;18.67;9.97;;;;;;;6.43;100.00;102369.13;7394836;19;20451;-47
2022/03/10 09:32:36;;;;;;;20.20;10.07;;;;;;;6.48;100.00;102368.72;7390324;19;20768;-50
2022/03/10 09:35:06;;;;;;;17.20;9.80;;;;;;;6.61;100.00;102368.09;7394187;19;20483;-48
2022/03/10 09:37:35;;;;;;;17.00;9.50;;;;;;;6.71;100.00;102363.72;7391497;19;20390;-49
2022/03/10 09:40:09;;;;;;;23.17;11.87;;;;;;;6.83;100.00;102358.75;7394531;19;20404;-48
2022/03/10 09:42:39;;;;;;;19.43;9.83;;;;;;;6.98;100.00;102357.41;7392377;19;20482;-48
2022/03/10 09:45:10;;;;;;;33.17;14.30;;;;;;;7.20;100.00;102363.41;7393615;19;20397;-52
2022/03/10 09:47:42;;;;;;;19.93;9.80;;;;;;;7.18;100.00;102357.28;7391201;19;20914;-48
2022/03/10 09:50:13;;;;;;;19.30;8.90;;;;;;;7.32;100.00;102363.53;7396853;19;20948;-47
2022/03/10 09:52:44;;;;;;;14.53;8.40;;;;;;;7.50;100.00;102361.53;7391643;19;20737;-47
2022/03/10 09:55:18;;;;;;;18.67;8.90;;;;;;;7.59;99.31;102357.13;7393428;19;20410;-46
2022/03/10 09:57:49;;;;;;;18.77;8.77;;;;;;;7.64;98.57;102366.09;7388447;19;20413;-47
2022/03/10 10:00:19;;;;;;;17.77;9.57;;;;;;;7.73;96.97;102360.78;7393688;19;20403;-52
2022/03/10 10:02:49;;;;;;;16.17;7.73;;;;;;;7.73;96.36;102359.91;7390869;19;21018;-48
2022/03/10 10:05:25;;;;;;;15.60;7.10;;;;;;;7.92;95.89;102358.00;7393144;19;20433;-50
2022/03/10 10:08:09;;;;;;;221.97;131.17;;;;;;;8.21;96.19;102356.78;7389564;19;20403;-52
2022/03/10 10:10:44;;;;;;;19.53;10.57;;;;;;;8.37;93.57;102360.53;7394591;19;20737;-49
2022/03/10 10:13:28;;;;;;;20.70;11.27;;;;;;;8.69;93.50;102351.81;7389804;19;20425;-47
2022/03/10 10:15:59;;;;;;;35.23;16.43;;;;;;;8.93;92.10;102362.16;7391889;19;20423;-47
2022/03/10 10:18:30;;;;;;;49.83;25.73;;;;;;;9.03;89.66;102362.03;7391256;19;21040;-50
2022/03/10 10:21:22;;;;;;;25.07;13.80;;;;;;;8.99;87.17;102362.63;7396961;19;20475;-49
2022/03/10 10:23:53;;;;;;;18.47;9.67;;;;;;;8.87;87.30;102357.44;7389903;19;20440;-48
2022/03/10 10:26:29;;;;;;;24.87;10.30;;;;;;;8.88;86.83;102360.91;7393553;19;20384;-47
2022/03/10 10:28:58;;;;;;;23.40;10.27;;;;;;;8.83;86.12;102359.69;7388810;19;20823;-48
2022/03/10 10:31:28;;;;;;;24.60;11.20;;;;;;;8.80;84.82;102359.44;7393711;19;20399;-47
2022/03/10 10:34:00;;;;;;;20.80;9.50;;;;;;;8.81;82.92;102358.69;7391979;19;20481;-46
2022/03/10 10:36:31;;;;;;;19.33;9.70;;;;;;;8.93;83.93;102359.59;7393739;19;20376;-49
2022/03/10 10:39:09;;;;;;;21.40;9.33;;;;;;;9.05;82.84;102352.78;7389362;19;20764;-50
2022/03/10 10:41:43;;;;;;;19.43;8.90;;;;;;;9.16;82.57;102355.22;7393108;19;20388;-50
2022/03/10 10:44:15;;;;;;;20.17;9.10;;;;;;;9.27;81.97;102358.56;7389490;19;20425;-46
2022/03/10 10:46:46;;;;;;;17.17;8.43;;;;;;;9.32;79.86;102357.22;7393377;19;20729;-48
2022/03/10 10:49:18;;;;;;;22.70;8.70;;;;;;;9.25;79.15;102355.91;7386561;19;20423;-47
2022/03/10 10:51:49;;;;;;;24.63;8.93;;;;;;;9.17;78.61;102363.06;7392773;19;20454;-49
2022/03/10 10:54:27;;;;;;;17.47;9.30;;;;;;;9.26;78.46;102351.63;7389555;19;20427;-50
2022/03/10 10:57:03;;;;;;;16.97;9.60;;;;;;;9.40;81.35;102356.13;7392814;19;20722;-49
2022/03/10 10:59:34;;;;;;;21.83;10.67;;;;;;;9.45;79.35;102359.03;7388405;19;20411;-49
2022/03/10 11:02:09;;;;;;;20.33;9.20;;;;;;;9.50;79.95;102355.09;7391869;19;20394;-47
2022/03/10 11:04:41;;;;;;;20.03;7.33;;;;;;;9.27;76.22;102348.28;7387630;19;20786;-51
2022/03/10 11:07:12;;;;;;;20.07;9.17;;;;;;;9.52;79.53;102357.78;7396302;19;20384;-49
2022/03/10 11:09:43;;;;;;;23.00;11.10;;;;;;;9.80;79.29;102359.75;7387548;19;20438;-50
2022/03/10 11:12:17;;;;;;;16.27;8.80;;;;;;;9.66;74.80;102345.88;7392431;19;20379;-47
2022/03/10 11:14:48;;;;;;;22.17;9.50;;;;;;;9.71;76.07;102353.13;7388142;19;20499;-49
2022/03/10 11:17:20;;;;;;;19.90;10.50;;;;;;;9.80;77.30;102352.91;7392333;19;20396;-49
2022/03/10 11:19:52;;;;;;;24.13;9.67;;;;;;;9.72;78.10;102348.88;7388060;19;20419;-50
2022/03/10 11:22:29;;;;;;;18.17;9.57;;;;;;;9.76;78.55;102345.75;7392255;19;20390;-49
2022/03/10 11:25:15;;;;;;;35.93;13.90;;;;;;;9.70;75.83;102350.47;7390209;19;20399;-47
2022/03/10 11:27:52;;;;;;;16.23;9.43;;;;;;;9.62;75.55;102346.44;7388615;19;20368;-48
2022/03/10 11:30:26;;;;;;;20.10;10.47;;;;;;;9.75;77.26;102343.97;7391990;19;20401;-48
2022/03/10 11:33:03;;;;;;;18.33;10.00;;;;;;;9.81;74.81;102346.97;7386540;19;20946;-47
2022/03/10 11:35:33;;;;;;;18.30;8.67;;;;;;;9.89;77.04;102341.47;7396529;19;20490;-49